createdAt,value
2018-09-28T00:01:25.214Z,5.60
2018-09-28T00:03:53.917Z,6.07
2018-09-28T00:06:22.318Z,6.70
2018-09-28T00:08:51.166Z,5.70
2018-09-28T00:11:19.610Z,5.90
2018-09-28T00:13:48.049Z,6.60
2018-09-28T00:16:16.474Z,6.20
2018-09-28T00:18:44.845Z,5.40
2018-09-28T00:21:13.253Z,6.90
2018-09-28T00:23:42.499Z,5.50
2018-09-28T00:26:10.947Z,6.03
2018-09-28T00:28:39.417Z,5.33
2018-09-28T00:31:07.814Z,6.00
2018-09-28T00:33:36.171Z,5.47
2018-09-28T00:36:04.618Z,5.20
2018-09-28T00:38:33.090Z,5.10
2018-09-28T00:41:01.568Z,4.70
2018-09-28T00:43:30.235Z,4.97
2018-09-28T00:45:58.638Z,4.93
2018-09-28T00:48:27.097Z,5.23
2018-09-28T00:50:55.649Z,5.93
2018-09-28T00:53:24.014Z,5.70
2018-09-28T00:55:52.509Z,6.50
2018-09-28T00:58:20.988Z,5.23
2018-09-28T01:00:49.479Z,5.90
2018-09-28T01:03:18.181Z,6.03
2018-09-28T01:05:46.721Z,4.73
2018-09-28T01:08:15.146Z,5.40
2018-09-28T01:10:43.486Z,5.60
2018-09-28T01:13:12.210Z,5.00
2018-09-28T01:15:40.530Z,5.60
2018-09-28T01:18:09.053Z,6.07
2018-09-28T01:20:37.475Z,5.40
2018-09-28T01:23:05.813Z,5.70
2018-09-28T01:25:34.279Z,6.10
2018-09-28T01:28:02.950Z,5.53
2018-09-28T01:30:31.494Z,5.80
2018-09-28T01:32:59.833Z,5.47
2018-09-28T01:35:28.286Z,5.70
2018-09-28T01:37:56.932Z,5.90
2018-09-28T01:40:25.458Z,5.67
2018-09-28T01:42:53.937Z,6.47
2018-09-28T01:45:22.573Z,6.03
2018-09-28T01:47:51.033Z,5.17
2018-09-28T01:50:19.401Z,7.10
2018-09-28T01:52:47.863Z,6.00
2018-09-28T01:55:16.250Z,5.93
2018-09-28T01:57:44.625Z,6.27
2018-09-28T02:00:12.997Z,5.90
2018-09-28T02:02:41.484Z,5.30
2018-09-28T02:05:10.177Z,5.77
2018-09-28T02:07:38.700Z,5.70
2018-09-28T02:10:07.167Z,5.83
2018-09-28T02:12:35.636Z,5.70
2018-09-28T02:15:04.084Z,5.10
2018-09-28T02:17:32.413Z,5.80
2018-09-28T02:20:00.783Z,5.83
2018-09-28T02:22:29.133Z,5.80
2018-09-28T02:24:57.579Z,6.50
2018-09-28T02:27:25.922Z,6.00
2018-09-28T02:29:54.273Z,5.83
2018-09-28T02:32:22.653Z,5.67
2018-09-28T02:34:51.193Z,5.30
2018-09-28T02:37:19.549Z,5.90
2018-09-28T02:39:47.947Z,5.47
2018-09-28T02:42:16.452Z,5.70
2018-09-28T02:44:44.899Z,6.20
2018-09-28T02:47:13.341Z,5.60
2018-09-28T02:49:41.686Z,6.77
2018-09-28T02:52:10.220Z,5.87
2018-09-28T02:54:38.661Z,6.50
2018-09-28T02:57:07.188Z,5.40
2018-09-28T02:59:35.691Z,5.53
2018-09-28T03:02:04.030Z,6.17
2018-09-28T03:04:32.469Z,6.53
2018-09-28T03:07:00.838Z,6.23
2018-09-28T03:09:29.282Z,6.20
2018-09-28T03:11:57.700Z,6.13
2018-09-28T03:14:26.052Z,5.50
2018-09-28T03:16:54.547Z,6.13
2018-09-28T03:19:22.951Z,5.53
2018-09-28T03:21:51.322Z,6.40
2018-09-28T03:24:19.714Z,7.13
2018-09-28T03:26:48.141Z,6.47
2018-09-28T03:29:16.566Z,6.97
2018-09-28T03:31:45.030Z,6.80
2018-09-28T03:34:13.510Z,6.57
2018-09-28T03:36:41.953Z,6.20
2018-09-28T03:39:10.391Z,7.30
2018-09-28T03:41:38.830Z,6.37
2018-09-28T03:44:07.276Z,5.60
2018-09-28T03:46:35.922Z,5.57
2018-09-28T03:49:04.269Z,6.50
2018-09-28T03:51:32.726Z,6.20
2018-09-28T03:54:01.041Z,6.50
2018-09-28T03:56:29.489Z,6.20
2018-09-28T03:58:58.027Z,6.20
2018-09-28T04:01:26.487Z,6.70
2018-09-28T04:03:54.898Z,6.80
2018-09-28T04:06:23.600Z,6.53
2018-09-28T04:08:51.988Z,7.03
2018-09-28T04:11:20.460Z,7.37
2018-09-28T04:13:48.806Z,7.03
2018-09-28T04:16:17.209Z,7.47
2018-09-28T04:18:45.958Z,7.20
2018-09-28T04:21:14.371Z,8.07
2018-09-28T04:23:42.713Z,7.80
2018-09-28T04:26:11.189Z,7.93
2018-09-28T04:28:39.715Z,7.50
2018-09-28T04:31:08.116Z,7.50
2018-09-28T04:33:36.662Z,8.70
2018-09-28T04:36:05.291Z,7.90
2018-09-28T04:38:33.682Z,8.90
2018-09-28T04:41:02.082Z,8.00
2018-09-28T04:43:30.466Z,7.33
2018-09-28T04:45:58.920Z,8.10
2018-09-28T04:48:27.254Z,7.67
2018-09-28T04:50:55.670Z,7.60
2018-09-28T04:53:23.991Z,7.77
2018-09-28T04:55:52.525Z,8.30
2018-09-28T04:58:20.946Z,9.00
2018-09-28T05:00:50.077Z,7.97
2018-09-28T05:03:18.469Z,10.40
2018-09-28T05:05:47.375Z,9.10
2018-09-28T05:08:15.847Z,8.80
2018-09-28T05:10:44.236Z,8.23
2018-09-28T05:13:12.660Z,8.10
2018-09-28T05:15:40.954Z,9.30
2018-09-28T05:18:09.574Z,8.27
2018-09-28T05:20:37.949Z,9.13
2018-09-28T05:23:06.328Z,7.90
2018-09-28T05:25:34.842Z,6.90
2018-09-28T05:28:03.255Z,8.00
2018-09-28T05:30:31.599Z,7.53
2018-09-28T05:33:00.139Z,8.10
2018-09-28T05:35:28.621Z,8.67
2018-09-28T05:37:57.131Z,8.63
2018-09-28T05:40:25.528Z,8.90
2018-09-28T05:42:53.984Z,10.53
2018-09-28T05:45:22.469Z,8.90
2018-09-28T05:47:50.853Z,8.20
2018-09-28T05:50:19.297Z,8.93
2018-09-28T05:52:47.678Z,9.43
2018-09-28T05:55:16.056Z,8.90
2018-09-28T05:57:44.416Z,8.63
2018-09-28T06:00:18.060Z,8.70
2018-09-28T06:02:52.030Z,8.57
2018-09-28T06:05:25.937Z,7.87
2018-09-28T06:07:54.385Z,9.27
2018-09-28T06:10:22.720Z,8.10
2018-09-28T06:12:51.062Z,8.63
2018-09-28T06:15:19.426Z,7.70
2018-09-28T06:17:47.918Z,8.83
2018-09-28T06:20:16.332Z,8.37
2018-09-28T06:22:44.710Z,8.90
2018-09-28T06:25:13.165Z,8.10
2018-09-28T06:27:41.554Z,8.13
2018-09-28T06:30:09.928Z,8.47
2018-09-28T06:32:38.318Z,8.10
2018-09-28T06:35:06.706Z,7.60
2018-09-28T06:37:35.089Z,9.13
2018-09-28T06:40:03.486Z,10.67
2018-09-28T06:42:31.999Z,9.20
2018-09-28T06:45:01.094Z,8.83
2018-09-28T06:47:29.551Z,8.00
2018-09-28T06:49:57.946Z,9.20
2018-09-28T06:52:26.498Z,9.40
2018-09-28T06:54:55.030Z,8.13
2018-09-28T06:57:23.377Z,8.80
2018-09-28T06:59:52.002Z,8.20
2018-09-28T07:02:20.516Z,7.40
2018-09-28T07:04:49.102Z,7.70
2018-09-28T07:07:17.461Z,9.20
2018-09-28T07:09:45.853Z,8.33
2018-09-28T07:12:14.211Z,8.93
2018-09-28T07:14:42.563Z,8.87
2018-09-28T07:17:10.993Z,9.10
2018-09-28T07:19:39.718Z,10.20
2018-09-28T07:22:08.891Z,8.50
2018-09-28T07:24:37.344Z,9.03
2018-09-28T07:27:05.942Z,8.97
2018-09-28T07:29:34.623Z,8.80
2018-09-28T07:32:02.994Z,9.83
2018-09-28T07:34:31.420Z,10.13
2018-09-28T07:36:59.859Z,9.53
2018-09-28T07:39:28.166Z,9.43
2018-09-28T07:41:56.695Z,9.70
2018-09-28T07:44:25.118Z,9.40
2018-09-28T07:46:53.515Z,10.20
2018-09-28T07:49:21.995Z,10.37
2018-09-28T07:51:50.290Z,10.60
2018-09-28T07:54:18.694Z,9.77
2018-09-28T07:56:47.041Z,9.73
2018-09-28T07:59:15.431Z,9.83
2018-09-28T08:01:43.930Z,10.10
2018-09-28T08:04:12.458Z,10.30
2018-09-28T08:06:40.830Z,10.33
2018-09-28T08:09:10.422Z,9.37
2018-09-28T08:11:38.869Z,9.07
2018-09-28T08:14:08.185Z,9.87
2018-09-28T08:16:36.716Z,9.03
2018-09-28T08:19:05.068Z,10.43
2018-09-28T08:21:33.401Z,10.27
2018-09-28T08:24:02.231Z,10.60
2018-09-28T08:26:31.427Z,11.57
2018-09-28T08:28:59.894Z,10.23
2018-09-28T08:31:28.473Z,10.30
2018-09-28T08:33:56.902Z,10.80
2018-09-28T08:36:26.165Z,9.10
2018-09-28T08:38:54.422Z,9.80
2018-09-28T08:41:22.920Z,10.30
2018-09-28T08:43:51.277Z,9.83
2018-09-28T08:46:20.173Z,10.43
2018-09-28T08:48:49.436Z,10.40
2018-09-28T08:51:18.124Z,10.93
2018-09-28T08:53:46.597Z,10.43
2018-09-28T08:56:15.071Z,9.90
2018-09-28T08:58:43.409Z,9.80
2018-09-28T09:01:11.874Z,10.53
2018-09-28T09:03:40.193Z,9.60
2018-09-28T09:06:08.613Z,9.17
2018-09-28T09:08:37.013Z,9.73
2018-09-28T09:11:05.414Z,10.20
2018-09-28T09:13:33.823Z,10.87
2018-09-28T09:16:02.810Z,11.03
2018-09-28T09:18:31.228Z,10.50
2018-09-28T09:20:59.639Z,10.47
2018-09-28T09:23:28.040Z,8.97
2018-09-28T09:25:56.421Z,9.30
2018-09-28T09:28:24.757Z,9.80
2018-09-28T09:30:53.092Z,10.67
2018-09-28T09:33:21.442Z,10.17
2018-09-28T09:35:49.894Z,9.43
2018-09-28T09:38:18.445Z,9.63
2018-09-28T09:40:46.824Z,8.47
2018-09-28T09:43:15.342Z,8.77
2018-09-28T09:45:43.710Z,9.17
2018-09-28T09:48:12.030Z,8.93
2018-09-28T09:50:40.594Z,8.20
2018-09-28T09:53:08.961Z,7.27
2018-09-28T09:55:37.289Z,7.53
2018-09-28T09:58:05.901Z,6.63
2018-09-28T10:00:39.551Z,6.30
2018-09-28T10:03:13.495Z,6.40
2018-09-28T10:05:42.033Z,6.30
2018-09-28T10:08:10.422Z,6.23
2018-09-28T10:10:38.749Z,6.80
2018-09-28T10:13:07.156Z,6.33
2018-09-28T10:15:35.542Z,6.47
2018-09-28T10:18:03.867Z,6.37
2018-09-28T10:20:32.199Z,6.70
2018-09-28T10:23:00.590Z,6.33
2018-09-28T10:25:29.011Z,6.43
2018-09-28T10:27:57.432Z,5.60
2018-09-28T10:30:26.058Z,6.17
2018-09-28T10:32:54.402Z,5.73
2018-09-28T10:35:22.813Z,5.30
2018-09-28T10:37:51.286Z,5.10
2018-09-28T10:40:19.690Z,5.50
2018-09-28T10:42:48.324Z,5.10
2018-09-28T10:45:16.852Z,4.90
2018-09-28T10:47:45.144Z,4.97
2018-09-28T10:50:13.523Z,5.20
2018-09-28T10:52:41.955Z,4.37
2018-09-28T10:55:10.517Z,4.50
2018-09-28T10:57:39.447Z,4.57
2018-09-28T11:00:07.856Z,4.53
2018-09-28T11:02:36.330Z,4.20
2018-09-28T11:05:04.850Z,3.97
2018-09-28T11:07:34.609Z,5.53
2018-09-28T11:10:02.957Z,4.97
2018-09-28T11:12:31.357Z,4.50
2018-09-28T11:14:59.701Z,4.13
2018-09-28T11:17:28.079Z,5.40
2018-09-28T11:19:56.702Z,4.43
2018-09-28T11:22:25.057Z,4.53
2018-09-28T11:24:53.598Z,4.23
2018-09-28T11:27:22.010Z,4.80
2018-09-28T11:29:50.298Z,4.10
2018-09-28T11:32:18.896Z,3.70
2018-09-28T11:34:47.207Z,3.70
2018-09-28T11:37:15.554Z,4.40
2018-09-28T11:39:44.134Z,3.60
2018-09-28T11:42:12.390Z,3.47
2018-09-28T11:44:40.723Z,3.70
2018-09-28T11:47:09.215Z,3.90
2018-09-28T11:49:37.583Z,3.60
2018-09-28T11:52:05.995Z,4.57
2018-09-28T11:54:34.450Z,3.60
2018-09-28T11:57:02.918Z,4.00
2018-09-28T11:59:31.612Z,5.00
2018-09-28T12:01:59.974Z,4.33
2018-09-28T12:04:28.373Z,4.57
2018-09-28T12:06:57.011Z,3.70
2018-09-28T12:09:25.349Z,3.83
2018-09-28T12:11:53.594Z,3.27
2018-09-28T12:14:22.055Z,2.97
2018-09-28T12:16:50.507Z,4.53
2018-09-28T12:19:18.845Z,4.03
2018-09-28T12:21:47.333Z,3.60
2018-09-28T12:24:15.663Z,3.60
2018-09-28T12:26:44.393Z,3.93
2018-09-28T12:29:12.981Z,3.80
2018-09-28T12:31:41.462Z,4.37
2018-09-28T12:34:10.014Z,4.70
2018-09-28T12:36:38.395Z,4.00
2018-09-28T12:39:09.009Z,4.70
2018-09-28T12:41:37.289Z,4.77
2018-09-28T12:44:05.906Z,4.00
2018-09-28T12:46:34.941Z,5.10
2018-09-28T12:49:03.410Z,4.67
2018-09-28T12:51:31.773Z,4.80
2018-09-28T12:54:00.360Z,4.60
2018-09-28T12:56:28.883Z,5.00
2018-09-28T12:58:57.353Z,4.87
2018-09-28T13:01:25.967Z,4.00
2018-09-28T13:03:54.410Z,4.80
2018-09-28T13:06:22.852Z,6.10
2018-09-28T13:08:51.289Z,6.13
2018-09-28T13:11:19.571Z,6.20
2018-09-28T13:13:48.182Z,5.00
2018-09-28T13:16:16.780Z,6.70
2018-09-28T13:18:45.396Z,7.93
2018-09-28T13:21:13.698Z,6.10
2018-09-28T13:23:42.081Z,7.87
2018-09-28T13:26:10.428Z,6.97
2018-09-28T13:28:38.805Z,6.40
2018-09-28T13:31:07.161Z,6.83
2018-09-28T13:33:35.659Z,7.97
2018-09-28T13:36:03.990Z,7.03
2018-09-28T13:38:32.541Z,6.70
2018-09-28T13:41:00.904Z,5.80
2018-09-28T13:43:29.415Z,6.07
2018-09-28T13:45:57.900Z,5.90
2018-09-28T13:48:26.352Z,6.77
2018-09-28T13:50:54.752Z,5.30
2018-09-28T13:53:23.094Z,5.97
2018-09-28T13:55:52.028Z,6.20
2018-09-28T13:58:20.404Z,5.23
2018-09-28T14:00:49.052Z,4.60
2018-09-28T14:03:24.193Z,5.20
2018-09-28T14:05:52.747Z,6.03
2018-09-28T14:08:21.195Z,4.70
2018-09-28T14:10:49.649Z,4.73
2018-09-28T14:13:18.137Z,5.50
2018-09-28T14:15:46.542Z,4.90
2018-09-28T14:18:15.033Z,5.50
2018-09-28T14:20:43.463Z,5.27
2018-09-28T14:23:11.742Z,5.50
2018-09-28T14:25:40.229Z,5.87
2018-09-28T14:28:08.779Z,5.97
2018-09-28T14:30:37.127Z,5.50
2018-09-28T14:33:05.434Z,4.87
2018-09-28T14:35:33.838Z,5.47
2018-09-28T14:38:02.285Z,4.87
2018-09-28T14:40:30.689Z,5.13
2018-09-28T14:43:02.008Z,5.93
2018-09-28T14:45:30.845Z,5.50
2018-09-28T14:47:59.316Z,6.10
2018-09-28T14:50:27.868Z,5.23
2018-09-28T14:52:56.190Z,5.97
2018-09-28T14:55:24.638Z,6.37
2018-09-28T14:57:53.019Z,5.40
2018-09-28T15:00:21.447Z,6.10
2018-09-28T15:02:49.913Z,5.33
2018-09-28T15:05:18.331Z,5.90
2018-09-28T15:07:46.740Z,6.20
2018-09-28T15:10:15.151Z,6.20
2018-09-28T15:12:43.548Z,6.70
2018-09-28T15:15:12.126Z,7.83
2018-09-28T15:17:40.543Z,6.40
2018-09-28T15:20:09.057Z,6.70
2018-09-28T15:22:37.518Z,7.60
2018-09-28T15:25:06.032Z,7.10
2018-09-28T15:27:34.470Z,8.20
2018-09-28T15:30:03.071Z,7.77
2018-09-28T15:32:31.371Z,7.50
2018-09-28T15:34:59.913Z,7.10
2018-09-28T15:37:28.274Z,7.70
2018-09-28T15:39:56.742Z,7.97
2018-09-28T15:42:25.138Z,8.17
2018-09-28T15:44:53.679Z,8.10
2018-09-28T15:47:22.181Z,8.30
2018-09-28T15:49:50.758Z,9.23
2018-09-28T15:52:19.157Z,9.77
2018-09-28T15:54:47.641Z,7.30
2018-09-28T15:57:16.079Z,9.27
2018-09-28T15:59:44.467Z,8.40
2018-09-28T16:02:12.942Z,7.63
2018-09-28T16:04:41.333Z,8.97
2018-09-28T16:07:09.939Z,8.37
2018-09-28T16:09:38.321Z,9.23
2018-09-28T16:12:06.846Z,10.10
2018-09-28T16:14:35.258Z,8.60
2018-09-28T16:17:03.626Z,9.20
2018-09-28T16:19:32.027Z,8.03
2018-09-28T16:22:00.448Z,9.10
2018-09-28T16:24:28.918Z,9.10
2018-09-28T16:26:57.563Z,8.13
2018-09-28T16:29:25.945Z,8.30
2018-09-28T16:31:54.763Z,7.03
2018-09-28T16:34:23.194Z,8.30
2018-09-28T16:36:52.053Z,9.03
2018-09-28T16:39:20.386Z,8.60
2018-09-28T16:41:48.744Z,8.40
2018-09-28T16:44:17.259Z,8.97
2018-09-28T16:46:45.683Z,7.73
2018-09-28T16:49:14.238Z,8.70
2018-09-28T16:51:42.730Z,9.13
2018-09-28T16:54:11.142Z,8.90
2018-09-28T16:56:39.589Z,9.93
2018-09-28T16:59:08.133Z,9.00
2018-09-28T17:01:36.571Z,10.20
2018-09-28T17:04:04.904Z,9.03
2018-09-28T17:06:33.372Z,8.67
2018-09-28T17:09:01.797Z,9.20
2018-09-28T17:11:30.317Z,10.07
2018-09-28T17:13:58.707Z,10.43
2018-09-28T17:16:27.074Z,10.43
2018-09-28T17:18:55.534Z,10.13
2018-09-28T17:21:23.921Z,9.20
2018-09-28T17:23:52.450Z,9.97
2018-09-28T17:26:20.918Z,9.13
2018-09-28T17:28:49.454Z,9.60
2018-09-28T17:31:17.823Z,9.20
2018-09-28T17:33:46.197Z,8.63
2018-09-28T17:36:14.610Z,7.77
2018-09-28T17:38:42.955Z,8.50
2018-09-28T17:41:11.334Z,7.40
2018-09-28T17:43:40.426Z,7.37
2018-09-28T17:46:08.834Z,7.03
2018-09-28T17:48:37.239Z,7.00
2018-09-28T17:51:05.590Z,6.60
2018-09-28T17:53:34.087Z,6.60
2018-09-28T17:56:02.512Z,6.50
2018-09-28T17:58:30.959Z,5.60
2018-09-28T18:00:59.850Z,6.80
2018-09-28T18:03:28.365Z,5.90
2018-09-28T18:05:56.854Z,6.13
2018-09-28T18:08:25.777Z,5.60
2018-09-28T18:10:54.248Z,6.00
2018-09-28T18:13:22.690Z,5.50
2018-09-28T18:15:51.136Z,5.17
2018-09-28T18:18:19.689Z,5.77
2018-09-28T18:20:48.019Z,5.10
2018-09-28T18:23:16.422Z,4.93
2018-09-28T18:25:44.998Z,4.23
2018-09-28T18:28:13.510Z,3.93
2018-09-28T18:30:41.871Z,4.20
2018-09-28T18:33:10.359Z,4.07
2018-09-28T18:35:38.808Z,4.30
2018-09-28T18:38:07.282Z,4.10
2018-09-28T18:40:35.771Z,3.93
2018-09-28T18:43:04.144Z,4.57
2018-09-28T18:45:32.540Z,5.07
2018-09-28T18:48:00.996Z,4.90
2018-09-28T18:50:29.419Z,4.50
2018-09-28T18:52:58.012Z,4.27
2018-09-28T18:55:26.418Z,5.07
2018-09-28T18:57:54.816Z,4.80
2018-09-28T19:00:23.160Z,3.80
2018-09-28T19:02:51.606Z,4.90
2018-09-28T19:05:19.955Z,4.57
2018-09-28T19:07:48.983Z,3.73
2018-09-28T19:10:17.419Z,4.13
2018-09-28T19:12:45.943Z,4.23
2018-09-28T19:15:14.298Z,3.63
2018-09-28T19:17:42.762Z,3.67
2018-09-28T19:20:11.153Z,3.30
2018-09-28T19:22:39.704Z,3.43
2018-09-28T19:25:07.927Z,3.40
2018-09-28T19:27:36.311Z,3.43
2018-09-28T19:30:05.237Z,4.17
2018-09-28T19:32:33.672Z,5.60
2018-09-28T19:35:02.346Z,4.93
2018-09-28T19:37:30.784Z,5.10
2018-09-28T19:39:59.522Z,4.93
2018-09-28T19:42:28.094Z,4.83
2018-09-28T19:44:56.638Z,5.70
2018-09-28T19:47:25.140Z,5.10
2018-09-28T19:49:53.807Z,5.27
2018-09-28T19:52:22.334Z,6.17
2018-09-28T19:54:50.874Z,6.40
2018-09-28T19:57:19.228Z,6.23
2018-09-28T19:59:47.637Z,5.73
2018-09-28T20:02:16.119Z,6.33
2018-09-28T20:04:44.536Z,6.30
2018-09-28T20:07:12.910Z,6.30
2018-09-28T20:09:41.351Z,6.20
2018-09-28T20:12:09.946Z,7.10
2018-09-28T20:14:38.542Z,6.07
2018-09-28T20:17:07.842Z,6.40
2018-09-28T20:19:36.343Z,6.23
2018-09-28T20:22:08.532Z,7.27
2018-09-28T20:24:37.005Z,6.70
2018-09-28T20:27:05.617Z,6.73
2018-09-28T20:29:33.997Z,7.77
2018-09-28T20:32:02.463Z,7.63
2018-09-28T20:34:31.107Z,7.00
2018-09-28T20:36:59.661Z,7.60
2018-09-28T20:39:28.041Z,7.57
2018-09-28T20:41:56.380Z,8.30
2018-09-28T20:44:24.776Z,8.77
2018-09-28T20:46:53.273Z,8.97
2018-09-28T20:49:21.628Z,11.10
2018-09-28T20:51:50.158Z,10.23
2018-09-28T20:54:18.687Z,10.83
2018-09-28T20:56:47.061Z,11.20
2018-09-28T20:59:15.570Z,12.10
2018-09-28T21:01:44.018Z,12.30
2018-09-28T21:04:12.391Z,12.50
2018-09-28T21:06:40.989Z,12.43
2018-09-28T21:09:10.230Z,12.50
2018-09-28T21:11:38.657Z,13.00
2018-09-28T21:14:07.483Z,14.63
2018-09-28T21:16:35.873Z,13.73
2018-09-28T21:19:04.481Z,13.70
2018-09-28T21:21:32.892Z,13.83
2018-09-28T21:24:01.375Z,14.53
2018-09-28T21:26:29.847Z,13.90
2018-09-28T21:28:58.380Z,13.50
2018-09-28T21:31:26.703Z,13.13
2018-09-28T21:33:55.097Z,12.97
2018-09-28T21:36:24.953Z,12.43
2018-09-28T21:38:53.843Z,12.27
2018-09-28T21:41:22.509Z,11.23
2018-09-28T21:43:50.912Z,10.97
2018-09-28T21:46:19.257Z,10.77
2018-09-28T21:48:47.713Z,10.20
2018-09-28T21:51:16.185Z,11.17
2018-09-28T21:53:44.557Z,11.73
2018-09-28T21:56:12.917Z,10.20
2018-09-28T21:58:41.284Z,9.77
2018-09-28T22:01:09.798Z,9.10
2018-09-28T22:03:38.563Z,10.70
2018-09-28T22:06:06.946Z,9.90
2018-09-28T22:08:35.390Z,7.97
2018-09-28T22:11:03.769Z,7.93
2018-09-28T22:13:32.094Z,8.47
2018-09-28T22:16:00.569Z,8.60
2018-09-28T22:18:29.005Z,8.10
2018-09-28T22:20:57.430Z,7.30
2018-09-28T22:23:25.942Z,8.57
2018-09-28T22:25:54.370Z,7.97
2018-09-28T22:28:22.826Z,6.50
2018-09-28T22:30:51.482Z,5.80
2018-09-28T22:33:19.913Z,6.70
2018-09-28T22:35:48.405Z,6.00
2018-09-28T22:38:16.844Z,5.90
2018-09-28T22:40:45.205Z,6.30
2018-09-28T22:43:13.806Z,5.30
2018-09-28T22:45:42.165Z,5.40
2018-09-28T22:48:10.513Z,4.80
2018-09-28T22:50:38.961Z,4.90
2018-09-28T22:53:07.453Z,4.63
2018-09-28T22:55:35.921Z,3.73
2018-09-28T22:58:04.330Z,4.50
2018-09-28T23:00:32.816Z,4.63
2018-09-28T23:03:01.249Z,4.90
2018-09-28T23:05:29.732Z,3.40
2018-09-28T23:07:58.507Z,3.90
2018-09-28T23:10:26.984Z,3.37
2018-09-28T23:12:55.430Z,3.00
2018-09-28T23:15:23.901Z,3.00
2018-09-28T23:17:52.391Z,2.77
2018-09-28T23:20:20.994Z,3.23
2018-09-28T23:22:49.412Z,2.60
2018-09-28T23:25:17.734Z,2.83
2018-09-28T23:27:46.197Z,2.43
2018-09-28T23:30:14.559Z,2.53
2018-09-28T23:32:42.907Z,2.13
2018-09-28T23:35:11.354Z,2.23
2018-09-28T23:37:39.902Z,2.60
2018-09-28T23:40:08.317Z,2.33
2018-09-28T23:42:36.782Z,2.30
2018-09-28T23:45:05.289Z,2.13
2018-09-28T23:47:33.789Z,2.03
2018-09-28T23:50:02.009Z,2.00
2018-09-28T23:52:30.461Z,2.20
2018-09-28T23:54:58.865Z,2.40
2018-09-28T23:57:27.445Z,3.07
2018-09-28T23:59:56.061Z,2.67
